Time;durP1;ratioP1;P1;durP2;ratioP2;P2;SDS_P1;SDS_P2;PMS_P1;PMS_P2;Temp;Humidity;BMP_temperature;BMP_pressure;BME280_temperature;BME280_humidity;BME280_pressure;Samples;Min_cycle;Max_cycle;Signal;HPM_P1;HPM_P2
2023/06/03 00:02:00;;;;;;;5.53;3.20;;;;;;;;;;5050904;28;20609;-88
2023/06/03 00:04:29;;;;;;;9.20;3.03;;;12.10;99.90;;;;;;5050158;28;20291;-87
2023/06/03 00:06:55;;;;;;;7.15;3.45;;;;;;;;;;5050880;28;21106;-88
2023/06/03 00:09:21;;;;;;;7.35;3.50;;;12.00;99.90;;;;;;5032993;28;20268;-87
2023/06/03 00:11:47;;;;;;;5.73;3.97;;;;;;;;;;5033598;28;20346;-88
2023/06/03 00:14:13;;;;;;;9.57;3.20;;;;;;;;;;5032154;28;20700;-88
2023/06/03 00:16:38;;;;;;;4.60;3.23;;;;;;;;;;5049225;28;20515;-87
2023/06/03 00:19:04;;;;;;;5.73;3.43;;;11.90;99.90;;;;;;5044690;28;21154;-88
2023/06/03 00:21:30;;;;;;;6.50;2.90;;;;;;;;;;5045614;28;20539;-88
2023/06/03 00:23:56;;;;;;;5.60;3.35;;;11.80;99.90;;;;;;5046438;28;20184;-87
2023/06/03 00:26:22;;;;;;;7.00;3.43;;;;;;;;;;5023048;28;20181;-88
2023/06/03 00:28:48;;;;;;;6.17;2.93;;;11.60;99.90;;;;;;5050872;28;20237;-88
2023/06/03 00:31:14;;;;;;;7.57;3.20;;;11.50;99.90;;;;;;5029112;28;21025;-88
2023/06/03 00:33:40;;;;;;;18.15;3.60;;;11.40;99.90;;;;;;5035373;28;20224;-88
2023/06/03 00:36:05;;;;;;;6.20;3.23;;;11.40;99.90;;;;;;5034706;28;20177;-88
2023/06/03 00:38:31;;;;;;;10.87;3.33;;;11.40;99.90;;;;;;5022525;28;20192;-87
2023/06/03 00:40:56;;;;;;;5.10;3.23;;;11.40;99.90;;;;;;5039050;28;20205;-87
2023/06/03 00:43:22;;;;;;;6.73;3.53;;;11.50;99.90;;;;;;5043058;28;20764;-88
2023/06/03 00:45:48;;;;;;;9.67;3.73;;;;;;;;;;5024713;28;20216;-87
2023/06/03 00:48:14;;;;;;;6.33;3.97;;;11.40;99.90;;;;;;5051534;28;20184;-88
2023/06/03 00:50:39;;;;;;;5.70;2.77;;;11.40;99.90;;;;;;5048047;28;20493;-87
2023/06/03 00:53:07;;;;;;;5.30;2.50;;;11.40;99.90;;;;;;5029441;28;20251;-87
2023/06/03 00:55:33;;;;;;;8.50;4.22;;;11.30;99.90;;;;;;5023924;28;20169;-87
2023/06/03 00:57:59;;;;;;;5.23;3.40;;;11.20;99.90;;;;;;5045943;28;20226;-87
2023/06/03 01:00:25;;;;;;;8.20;4.38;;;11.10;99.90;;;;;;5030224;28;20466;-87
2023/06/03 01:02:50;;;;;;;6.70;4.00;;;11.10;99.90;;;;;;5030377;28;20255;-86
2023/06/03 01:05:16;;;;;;;6.10;2.50;;;11.00;99.90;;;;;;5045525;28;20268;-87
2023/06/03 01:08:13;;;;;;;4.40;3.15;;;10.90;99.90;;;;;;5029560;28;20562;-86
2023/06/03 01:10:49;;;;;;;10.52;3.28;;;10.90;99.90;;;;;;5047982;28;20231;-87
2023/06/03 01:13:31;;;;;;;6.78;3.78;;;10.80;99.90;;;;;;5031174;28;20193;-87
2023/06/03 01:16:04;;;;;;;6.30;3.13;;;10.80;99.90;;;;;;5033290;28;20180;-88
2023/06/03 01:18:31;;;;;;;3.45;3.13;;;10.70;99.90;;;;;;5019415;28;20226;-87
2023/06/03 01:21:00;;;;;;;7.40;3.60;;;10.60;99.90;;;;;;5045867;28;20279;-87
2023/06/03 01:23:33;;;;;;;6.70;3.30;;;10.50;99.90;;;;;;5045530;28;20177;-86
2023/06/03 01:26:00;;;;;;;5.43;3.10;;;10.50;99.90;;;;;;5046388;28;20177;-87
2023/06/03 01:28:27;;;;;;;11.57;3.30;;;10.50;99.90;;;;;;5047686;28;20231;-88
2023/06/03 01:30:54;;;;;;;4.07;3.30;;;10.40;99.90;;;;;;5050591;28;20232;-87
2023/06/03 01:33:22;;;;;;;9.32;3.83;;;10.40;99.90;;;;;;5037425;28;20211;-86
2023/06/03 01:35:49;;;;;;;7.75;3.90;;;10.30;99.90;;;;;;5051270;28;20188;-88
2023/06/03 01:38:16;;;;;;;13.63;3.55;;;10.20;99.90;;;;;;5028137;28;20169;-87
2023/06/03 01:40:42;;;;;;;5.88;3.38;;;10.20;99.90;;;;;;5032010;28;20202;-86
2023/06/03 01:43:07;;;;;;;3.87;2.67;;;10.20;99.90;;;;;;5041390;28;20207;-87
2023/06/03 01:45:33;;;;;;;5.27;3.40;;;10.10;99.90;;;;;;5046305;28;20206;-87
2023/06/03 01:47:59;;;;;;;4.63;3.17;;;10.10;99.90;;;;;;5051950;28;20447;-87
2023/06/03 01:50:25;;;;;;;4.40;3.08;;;10.10;99.90;;;;;;5048970;28;20212;-87
2023/06/03 01:52:51;;;;;;;7.90;2.90;;;10.10;99.90;;;;;;5041653;28;20201;-88
2023/06/03 01:55:17;;;;;;;8.30;4.03;;;10.10;99.90;;;;;;5046621;28;20177;-87
2023/06/03 01:57:42;;;;;;;8.10;3.80;;;10.10;99.90;;;;;;5047663;28;20431;-87
2023/06/03 02:00:11;;;;;;;6.10;4.10;;;10.10;99.90;;;;;;5033900;28;20189;-88
2023/06/03 02:02:37;;;;;;;8.60;3.60;;;10.10;99.90;;;;;;5050732;28;20177;-87
2023/06/03 02:05:03;;;;;;;7.10;3.37;;;10.00;99.90;;;;;;5035735;28;20581;-88
2023/06/03 02:07:32;;;;;;;4.10;3.00;;;10.00;99.90;;;;;;5035731;28;20185;-87
2023/06/03 02:09:58;;;;;;;6.63;3.17;;;10.00;99.90;;;;;;5049428;28;20459;-88
2023/06/03 02:12:23;;;;;;;6.35;2.72;;;10.00;99.90;;;;;;5049073;28;20196;-88
2023/06/03 02:14:56;;;;;;;6.50;4.03;;;10.00;99.90;;;;;;5048352;28;20183;-89
2023/06/03 02:17:24;;;;;;;7.18;3.20;;;9.90;99.90;;;;;;5046751;28;20166;-87
2023/06/03 02:19:50;;;;;;;9.25;3.10;;;9.90;99.90;;;;;;5028280;28;20197;-87
2023/06/03 02:22:15;;;;;;;11.52;3.80;;;9.90;99.90;;;;;;5027448;28;20181;-87
2023/06/03 02:24:41;;;;;;;7.20;3.20;;;9.80;99.90;;;;;;5029499;28;20188;-87
2023/06/03 02:27:08;;;;;;;7.63;2.93;;;9.80;99.90;;;;;;5048058;28;20612;-86
2023/06/03 02:29:34;;;;;;;7.45;3.17;;;9.80;99.90;;;;;;5048620;28;20689;-87
2023/06/03 02:32:01;;;;;;;3.03;2.73;;;9.90;99.90;;;;;;5049548;28;20188;-87
2023/06/03 02:34:27;;;;;;;5.45;2.95;;;9.90;99.90;;;;;;5032210;28;20200;-88
2023/06/03 02:36:52;;;;;;;5.27;2.90;;;;;;;;;;5051915;28;20192;-88
2023/06/03 02:39:19;;;;;;;6.27;3.57;;;9.50;99.90;;;;;;5035911;28;20416;-88
2023/06/03 02:41:46;;;;;;;7.57;3.35;;;9.50;99.90;;;;;;5053264;28;20445;-88
2023/06/03 02:44:12;;;;;;;11.65;3.92;;;9.50;99.90;;;;;;5040723;28;20733;-88
2023/06/03 02:46:38;;;;;;;6.15;3.22;;;9.50;99.90;;;;;;5041721;28;20189;-87
2023/06/03 02:49:06;;;;;;;7.40;3.77;;;9.40;99.90;;;;;;5053980;28;20181;-88
2023/06/03 02:51:31;;;;;;;5.72;3.20;;;9.40;99.90;;;;;;5051272;28;20212;-87
2023/06/03 02:53:57;;;;;;;7.80;3.67;;;9.40;99.90;;;;;;5052953;28;20208;-87
2023/06/03 02:56:23;;;;;;;4.70;3.23;;;;;;;;;;5048697;28;20595;-87
2023/06/03 02:58:50;;;;;;;8.55;3.53;;;9.40;99.90;;;;;;5050194;28;20717;-88
2023/06/03 03:01:17;;;;;;;5.22;3.25;;;9.40;99.90;;;;;;5051043;28;20331;-87
2023/06/03 03:03:43;;;;;;;7.68;3.20;;;9.30;99.90;;;;;;5051827;28;20467;-88
2023/06/03 03:06:15;;;;;;;4.37;3.57;;;9.30;99.90;;;;;;5035126;28;21103;-87
2023/06/03 03:08:42;;;;;;;7.18;2.58;;;9.30;99.90;;;;;;5034048;28;20248;-87
2023/06/03 03:11:09;;;;;;;14.02;3.40;;;9.30;99.90;;;;;;5051888;28;20204;-87
2023/06/03 03:13:35;;;;;;;4.47;2.72;;;9.30;99.90;;;;;;5033732;28;20208;-88
2023/06/03 03:16:01;;;;;;;5.70;3.38;;;9.30;99.90;;;;;;5032839;28;20185;-87
2023/06/03 03:18:27;;;;;;;6.00;3.65;;;9.30;99.90;;;;;;5039193;28;20174;-87
2023/06/03 03:20:52;;;;;;;8.30;3.70;;;9.30;99.90;;;;;;5033548;28;20550;-87
2023/06/03 03:23:18;;;;;;;7.40;3.13;;;9.40;99.90;;;;;;5034546;28;20205;-87
2023/06/03 03:25:45;;;;;;;6.43;2.93;;;9.40;99.90;;;;;;5046768;28;20388;-87
2023/06/03 03:28:11;;;;;;;6.88;4.05;;;9.40;99.90;;;;;;5032046;28;20231;-88
2023/06/03 03:30:37;;;;;;;15.60;3.40;;;9.30;99.90;;;;;;5049159;28;20216;-87
2023/06/03 03:33:04;;;;;;;5.90;2.70;;;9.30;99.90;;;;;;5037793;28;20251;-87
2023/06/03 03:35:30;;;;;;;11.13;3.17;;;9.20;99.90;;;;;;5045566;28;20227;-86
2023/06/03 03:38:02;;;;;;;10.00;3.40;;;9.30;99.90;;;;;;5028242;28;20177;-87
2023/06/03 03:40:29;;;;;;;7.50;3.72;;;9.30;99.90;;;;;;5048524;28;20209;-87
2023/06/03 03:42:55;;;;;;;8.48;3.83;;;9.30;99.90;;;;;;5046824;28;20189;-87
2023/06/03 03:45:25;;;;;;;6.35;3.25;;;9.30;99.90;;;;;;5047038;28;20690;-87
2023/06/03 03:47:52;;;;;;;5.03;3.20;;;9.50;99.90;;;;;;5049372;28;20181;-87
2023/06/03 03:50:46;;;;;;;3.38;3.08;;;9.60;99.90;;;;;;5051935;28;20579;-87
2023/06/03 03:53:26;;;;;;;5.63;2.60;;;9.70;99.90;;;;;;5031865;28;20201;-87
2023/06/03 03:55:54;;;;;;;3.70;2.97;;;9.80;99.90;;;;;;5047589;28;20177;-86
2023/06/03 03:58:22;;;;;;;8.00;3.30;;;9.80;99.90;;;;;;5049675;28;20177;-87
2023/06/03 04:00:48;;;;;;;7.18;3.63;;;9.80;99.90;;;;;;5047808;28;20229;-87
2023/06/03 04:03:14;;;;;;;6.73;3.43;;;9.90;99.90;;;;;;5031065;28;20649;-87
2023/06/03 04:05:40;;;;;;;6.72;3.40;;;10.00;99.90;;;;;;5046570;28;20177;-87
2023/06/03 04:08:06;;;;;;;6.27;3.33;;;10.00;99.90;;;;;;5051055;28;20196;-88
2023/06/03 04:10:32;;;;;;;6.70;3.77;;;10.10;99.90;;;;;;5049838;28;20208;-87
2023/06/03 04:12:58;;;;;;;5.88;3.80;;;10.40;99.90;;;;;;5033830;28;20455;-88
2023/06/03 04:15:30;;;;;;;13.20;4.07;;;10.60;99.90;;;;;;5033200;28;20545;-87
2023/06/03 04:17:56;;;;;;;8.27;3.92;;;11.40;99.90;;;;;;5036010;28;20256;-87
2023/06/03 04:20:37;;;;;;;8.32;3.63;;;12.60;99.90;;;;;;5047565;28;20209;-87
2023/06/03 04:23:07;;;;;;;7.65;3.47;;;14.20;99.90;;;;;;5031037;28;20233;-87
2023/06/03 04:25:33;;;;;;;11.25;3.42;;;15.90;99.90;;;;;;5031793;28;20728;-87
2023/06/03 04:27:59;;;;;;;4.90;3.40;;;17.40;99.90;;;;;;5051318;28;20300;-87
2023/06/03 04:30:25;;;;;;;6.40;3.23;;;;;;;;;;5032268;28;20475;-87
2023/06/03 04:32:50;;;;;;;8.90;2.70;;;19.10;99.90;;;;;;5051991;28;20193;-88
2023/06/03 04:35:16;;;;;;;8.03;2.63;;;;;;;;;;5031641;28;20946;-88
2023/06/03 04:37:41;;;;;;;5.20;2.80;;;21.30;99.90;;;;;;5051147;28;20196;-88
2023/06/03 04:40:10;;;;;;;6.43;2.40;;;22.00;99.90;;;;;;5032001;28;20455;-88
2023/06/03 04:42:36;;;;;;;5.07;3.30;;;;;;;;;;5050804;28;20189;-87
2023/06/03 04:45:03;;;;;;;6.33;3.50;;;;;;;;;;5048370;28;20431;-88
2023/06/03 04:47:29;;;;;;;7.40;2.50;;;;;;;;;;5043984;28;20439;-88
2023/06/03 04:49:55;;;;;;;4.57;2.73;;;;;;;;;;5046447;28;20462;-86
2023/06/03 04:52:22;;;;;;;7.00;2.87;;;;;;;;;;5046452;28;20449;-88
2023/06/03 04:54:47;;;;;;;8.30;2.97;;;25.10;81.70;;;;;;5027207;28;20427;-87
2023/06/03 04:57:13;;;;;;;7.50;3.00;;;;;;;;;;5029611;28;20420;-87
2023/06/03 04:59:40;;;;;;;5.30;3.80;;;;;;;;;;5049435;28;20211;-86
2023/06/03 05:02:08;;;;;;;6.33;3.20;;;26.80;72.60;;;;;;5037343;28;21127;-87
2023/06/03 05:04:34;;;;;;;4.97;3.17;;;;;;;;;;5028015;28;20428;-87
2023/06/03 05:07:02;;;;;;;4.73;3.40;;;27.60;68.90;;;;;;5046615;28;20572;-87
2023/06/03 05:09:28;;;;;;;5.30;2.83;;;27.60;62.50;;;;;;5020730;28;20439;-87
2023/06/03 05:11:55;;;;;;;5.70;3.20;;;;;;;;;;5027240;28;20855;-88
2023/06/03 05:14:22;;;;;;;4.13;2.70;;;;;;;;;;5041872;28;20221;-86
2023/06/03 05:16:48;;;;;;;10.03;4.00;;;;;;;;;;5049170;28;20468;-87
2023/06/03 05:19:14;;;;;;;5.30;2.90;;;;;;;;;;5043745;28;20457;-88
2023/06/03 05:21:40;;;;;;;4.63;3.17;;;;;;;;;;5043149;28;21406;-88
2023/06/03 05:24:06;;;;;;;5.20;3.37;;;;;;;;;;5049702;28;20512;-88
2023/06/03 05:26:32;;;;;;;10.07;4.73;;;;;;;;;;5048100;28;20960;-88
2023/06/03 05:28:58;;;;;;;6.13;2.90;;;;;;;;;;5036769;28;20450;-89
2023/06/03 05:31:23;;;;;;;5.67;3.60;;;;;;;;;;5028522;28;20458;-88
2023/06/03 05:33:49;;;;;;;4.27;3.10;;;;;;;;;;5047295;28;20507;-87
2023/06/03 05:36:15;;;;;;;6.60;3.20;;;;;;;;;;5046198;28;20479;-86
2023/06/03 05:38:41;;;;;;;3.60;3.13;;;;;;;;;;5047556;28;20823;-88
2023/06/03 05:41:07;;;;;;;5.60;3.60;;;;;;;;;;5044972;28;20443;-88
2023/06/03 05:43:33;;;;;;;6.33;3.20;;;;;;;;;;5048917;28;20863;-87
2023/06/03 05:45:59;;;;;;;3.73;3.37;;;;;;;;;;5039586;28;20447;-88
2023/06/03 05:48:25;;;;;;;3.90;3.50;;;;;;;;;;5048411;28;20439;-88
2023/06/03 05:50:53;;;;;;;5.83;3.07;;;32.10;49.00;;;;;;5045824;28;20461;-88
2023/06/03 05:53:20;;;;;;;4.97;3.40;;;33.10;47.90;;;;;;5049446;28;20479;-88
2023/06/03 05:55:46;;;;;;;6.70;3.80;;;;;;;;;;5047787;28;20802;-87
2023/06/03 05:58:12;;;;;;;5.63;3.60;;;;;;;;;;5046283;28;21386;-88
2023/06/03 06:00:38;;;;;;;4.40;3.80;;;;;;;;;;5045859;28;20466;-88
2023/06/03 06:03:04;;;;;;;4.80;3.70;;;;;;;;;;5047360;28;20489;-87
2023/06/03 06:05:30;;;;;;;7.63;4.07;;;;;;;;;;5048149;28;20528;-89
2023/06/03 06:07:56;;;;;;;4.77;4.27;;;;;;;;;;5049461;28;20434;-88
2023/06/03 06:10:22;;;;;;;4.90;4.40;;;;;;;;;;5049257;28;20427;-86
2023/06/03 06:12:47;;;;;;;5.90;3.90;;;29.80;46.80;;;;;;5047380;28;20839;-88
2023/06/03 06:15:13;;;;;;;3.83;3.27;;;;;;;;;;5028548;28;20484;-88
2023/06/03 06:17:39;;;;;;;4.83;3.80;;;;;;;;;;5033845;28;20201;-88
2023/06/03 06:20:06;;;;;;;4.10;3.40;;;28.60;47.50;;;;;;5046150;28;20529;-87
2023/06/03 06:22:32;;;;;;;3.70;3.40;;;;;;;;;;5052339;28;20441;-87
2023/06/03 06:24:58;;;;;;;8.67;3.63;;;29.10;46.80;;;;;;5045179;28;20484;-88
2023/06/03 06:27:24;;;;;;;5.40;3.30;;;;;;;;;;5034864;28;20434;-88
2023/06/03 06:29:52;;;;;;;3.73;3.20;;;30.40;46.80;;;;;;5048149;28;20542;-86
2023/06/03 06:32:22;;;;;;;7.77;3.70;;;30.60;46.60;;;;;;5034619;28;20434;-88
2023/06/03 06:34:49;;;;;;;5.43;3.83;;;;;;;;;;5049168;28;20434;-87
2023/06/03 06:37:15;;;;;;;6.17;3.80;;;;;;;;;;5049596;28;20411;-87
2023/06/03 06:39:46;;;;;;;7.40;3.67;;;30.60;45.80;;;;;;5033249;28;20428;-88
2023/06/03 06:42:32;;;;;;;5.47;4.37;;;30.80;46.40;;;;;;5050723;28;20520;-88
2023/06/03 06:44:59;;;;;;;4.27;3.50;;;30.50;45.80;;;;;;5047288;28;20953;-87
2023/06/03 06:47:27;;;;;;;5.20;3.87;;;30.50;45.40;;;;;;5048848;28;20439;-88
2023/06/03 06:49:56;;;;;;;7.73;3.90;;;30.20;45.70;;;;;;5036395;28;20439;-86
2023/06/03 06:52:23;;;;;;;5.83;3.97;;;30.20;46.20;;;;;;5069720;28;20442;-87
2023/06/03 06:54:49;;;;;;;6.30;4.37;;;;;;;;;;5065947;28;21530;-87
2023/06/03 06:57:23;;;;;;;5.53;3.70;;;30.50;46.80;;;;;;5054088;28;20425;-87
2023/06/03 06:59:51;;;;;;;3.97;3.57;;;;;;;;;;5054096;28;20456;-87
2023/06/03 07:02:17;;;;;;;8.43;3.60;;;;;;;;;;5053833;28;20433;-88
2023/06/03 07:04:43;;;;;;;4.60;4.20;;;;;;;;;;5047984;28;20491;-88
2023/06/03 07:07:09;;;;;;;4.77;4.37;;;;;;;;;;5041021;28;20497;-87
2023/06/03 07:09:35;;;;;;;6.60;4.13;;;;;;;;;;5048755;28;20462;-89
2023/06/03 07:12:01;;;;;;;6.37;4.57;;;;;;;;;;5040331;28;20985;-88
2023/06/03 07:14:30;;;;;;;7.77;4.30;;;31.00;44.90;;;;;;5049339;28;20456;-88
2023/06/03 07:16:56;;;;;;;5.77;4.53;;;;;;;;;;5033344;28;20435;-89
2023/06/03 07:19:22;;;;;;;4.80;4.00;;;;;;;;;;5047003;28;20466;-88
2023/06/03 07:21:48;;;;;;;5.17;4.50;;;;;;;;;;5050845;28;20463;-88
2023/06/03 07:24:15;;;;;;;5.73;4.00;;;32.60;43.60;;;;;;5035565;28;20489;-87
2023/06/03 07:26:41;;;;;;;8.83;4.47;;;;;;;;;;5029351;28;20435;-87
2023/06/03 07:29:07;;;;;;;5.10;4.23;;;;;;;;;;5031027;28;20446;-88
2023/06/03 07:31:35;;;;;;;6.10;4.20;;;32.00;42.30;;;;;;5048878;28;20423;-88
2023/06/03 07:34:01;;;;;;;5.70;3.93;;;;;;;;;;5030379;28;20550;-88
2023/06/03 07:36:28;;;;;;;5.77;4.80;;;;;;;;;;5036304;28;20584;-88
2023/06/03 07:39:17;;;;;;;6.33;4.93;;;33.80;40.10;;;;;;5048272;28;20493;-87
2023/06/03 07:41:50;;;;;;;5.07;4.47;;;33.90;41.10;;;;;;5048675;28;20424;-88
2023/06/03 07:44:23;;;;;;;5.40;4.63;;;33.60;40.40;;;;;;5032964;28;20827;-86
2023/06/03 07:46:56;;;;;;;5.57;5.03;;;33.40;41.80;;;;;;5053256;28;20432;-88
2023/06/03 07:49:22;;;;;;;10.43;5.57;;;;;;;;;;5032667;28;21013;-88
2023/06/03 07:51:50;;;;;;;7.63;5.87;;;32.40;40.40;;;;;;5051409;28;20455;-87
2023/06/03 07:54:17;;;;;;;6.83;4.43;;;;;;;;;;5047879;28;20468;-88
2023/06/03 07:56:43;;;;;;;4.87;4.47;;;32.90;41.90;;;;;;5048561;28;20412;-87
2023/06/03 07:59:10;;;;;;;4.90;4.50;;;32.80;41.30;;;;;;5040537;28;20938;-87
2023/06/03 08:01:37;;;;;;;5.00;4.50;;;;;;;;;;5052835;28;20503;-88
2023/06/03 08:04:08;;;;;;;6.60;4.87;;;33.70;41.00;;;;;;5050117;28;20432;-89
2023/06/03 08:06:36;;;;;;;6.13;4.90;;;;;;;;;;5026841;28;20446;-87
2023/06/03 08:09:02;;;;;;;5.77;5.27;;;;;;;;;;5049650;28;20488;-88
2023/06/03 08:11:28;;;;;;;6.50;5.40;;;;;;;;;;5031764;28;21038;-87
2023/06/03 08:13:56;;;;;;;9.30;4.87;;;32.00;42.00;;;;;;5049508;28;20545;-88
2023/06/03 08:16:21;;;;;;;7.47;5.17;;;;;;;;;;5069054;28;20496;-87
2023/06/03 08:18:50;;;;;;;5.60;4.90;;;31.50;42.90;;;;;;5045427;28;20522;-87
2023/06/03 08:21:17;;;;;;;6.53;5.93;;;32.50;43.10;;;;;;5031011;28;20463;-87
2023/06/03 08:23:43;;;;;;;6.90;5.30;;;;;;;;;;5047019;28;20440;-86
2023/06/03 08:26:10;;;;;;;5.30;4.50;;;33.10;40.80;;;;;;5031971;28;20415;-88
2023/06/03 08:28:39;;;;;;;11.30;5.50;;;33.60;40.90;;;;;;5047916;28;20454;-87
2023/06/03 08:31:05;;;;;;;6.33;5.20;;;;;;;;;;5045781;28;20454;-87
2023/06/03 08:33:31;;;;;;;5.20;4.70;;;;;;;;;;5033449;28;20515;-85
2023/06/03 08:35:57;;;;;;;5.07;4.63;;;;;;;;;;5046232;28;20429;-86
2023/06/03 08:38:23;;;;;;;6.50;5.10;;;;;;;;;;5050659;28;20452;-86
2023/06/03 08:40:50;;;;;;;7.67;4.93;;;34.00;40.90;;;;;;5035530;28;20461;-87
2023/06/03 08:43:16;;;;;;;6.30;5.20;;;;;;;;;;5029115;28;20528;-87
2023/06/03 08:46:17;;;;;;;6.37;5.77;;;34.20;48.40;;;;;;5040927;28;20432;-88
2023/06/03 08:49:03;;;;;;;7.53;6.77;;;35.40;39.60;;;;;;5019065;28;20451;-88
2023/06/03 08:51:39;;;;;;;8.00;5.77;;;34.90;39.50;;;;;;5028035;28;21298;-87
2023/06/03 08:54:13;;;;;;;6.37;5.70;;;34.40;45.30;;;;;;5047996;28;20460;-87
2023/06/03 08:56:46;;;;;;;7.93;7.23;;;33.10;40.60;;;;;;5021436;28;20428;-87
2023/06/03 08:59:18;;;;;;;8.50;6.10;;;32.40;41.90;;;;;;5035687;28;20946;-88
2023/06/03 09:01:46;;;;;;;5.83;5.40;;;32.60;42.70;;;;;;5029902;28;21279;-88
2023/06/03 09:04:13;;;;;;;8.30;6.83;;;33.40;41.90;;;;;;5047349;28;20496;-88
2023/06/03 09:06:44;;;;;;;6.70;6.00;;;33.30;46.80;;;;;;5028051;28;20449;-87
2023/06/03 09:09:11;;;;;;;15.60;6.00;;;31.90;41.80;;;;;;5042772;28;20445;-86
2023/06/03 09:11:39;;;;;;;8.10;6.73;;;30.50;43.60;;;;;;5050202;28;20464;-88
2023/06/03 09:14:05;;;;;;;5.73;5.23;;;;;;;;;;5048506;28;20462;-88
2023/06/03 09:16:32;;;;;;;6.97;6.37;;;30.80;44.90;;;;;;5046254;28;20442;-86
2023/06/03 09:18:58;;;;;;;6.80;5.13;;;;;;;;;;5048846;28;20450;-87
2023/06/03 09:21:24;;;;;;;5.87;5.27;;;29.90;44.90;;;;;;5046584;28;20461;-88
2023/06/03 09:23:53;;;;;;;6.97;5.30;;;;;;;;;;5021376;28;20536;-88
2023/06/03 09:26:19;;;;;;;5.33;4.47;;;;;;;;;;5028873;28;20418;-87
2023/06/03 09:28:45;;;;;;;6.40;5.27;;;;;;;;;;5047541;28;20534;-86
2023/06/03 09:31:11;;;;;;;9.97;6.00;;;;;;;;;;5047135;28;20505;-86
2023/06/03 09:33:37;;;;;;;5.87;5.20;;;;;;;;;;5047006;28;20457;-88
2023/06/03 09:36:05;;;;;;;9.07;6.70;;;31.10;43.20;;;;;;5047295;28;20440;-88
2023/06/03 09:38:54;;;;;;;6.40;5.73;;;31.90;49.80;;;;;;5045508;28;20420;-87
2023/06/03 09:41:27;;;;;;;6.27;5.10;;;32.80;43.60;;;;;;5032372;28;20438;-87
2023/06/03 09:43:57;;;;;;;8.10;6.07;;;33.20;41.90;;;;;;5051958;28;20497;-88
2023/06/03 09:46:24;;;;;;;7.30;6.20;;;33.00;41.20;;;;;;5046845;28;20825;-88
2023/06/03 09:48:50;;;;;;;6.63;6.17;;;;;;;;;;5053961;28;20490;-87
2023/06/03 09:51:16;;;;;;;6.93;5.90;;;;;;;;;;5054082;28;20480;-87
2023/06/03 09:53:42;;;;;;;8.43;5.80;;;;;;;;;;5053843;28;20490;-88
2023/06/03 09:56:21;;;;;;;7.03;6.33;;;31.80;48.10;;;;;;5053787;28;20446;-88
2023/06/03 09:58:46;;;;;;;6.23;5.63;;;31.60;44.50;;;;;;5050538;28;20436;-87
2023/06/03 10:01:12;;;;;;;6.43;5.83;;;31.30;49.30;;;;;;5043457;28;20453;-87
2023/06/03 10:03:38;;;;;;;6.73;5.83;;;;;;;;;;5032885;28;20207;-88
2023/06/03 10:06:17;;;;;;;7.27;6.00;;;32.50;43.80;;;;;;5020954;28;20917;-87
2023/06/03 10:08:44;;;;;;;8.23;6.00;;;32.40;43.10;;;;;;5046345;28;20560;-87
2023/06/03 10:11:10;;;;;;;6.63;6.10;;;;;;;;;;5049462;28;20445;-87
2023/06/03 10:13:35;;;;;;;6.50;5.90;;;;;;;;;;5048838;28;20464;-87
2023/06/03 10:16:02;;;;;;;7.90;5.77;;;;;;;;;;5047175;28;20438;-87
2023/06/03 10:18:39;;;;;;;6.77;6.23;;;31.40;44.70;;;;;;5051393;28;20436;-88
2023/06/03 10:21:11;;;;;;;10.77;6.70;;;31.30;45.20;;;;;;5044141;28;20455;-87
2023/06/03 10:23:39;;;;;;;7.40;5.70;;;30.10;46.10;;;;;;5047056;28;20457;-87
2023/06/03 10:26:05;;;;;;;6.30;5.80;;;;;;;;;;5049525;28;20419;-88
2023/06/03 10:28:32;;;;;;;5.97;5.30;;;31.70;44.90;;;;;;5048133;28;20460;-87
2023/06/03 10:31:00;;;;;;;9.33;5.80;;;31.50;45.20;;;;;;5047716;28;20545;-87
2023/06/03 10:33:27;;;;;;;6.47;5.80;;;29.00;45.60;;;;;;5042536;28;21480;-88
2023/06/03 10:36:00;;;;;;;6.43;5.93;;;28.00;48.60;;;;;;5038280;28;20439;-86
2023/06/03 10:38:26;;;;;;;5.57;5.03;;;;;;;;;;5033508;28;20972;-87
2023/06/03 10:40:53;;;;;;;8.57;6.30;;;26.90;51.80;;;;;;5036817;28;21014;-88
2023/06/03 10:43:20;;;;;;;8.73;5.77;;;26.30;53.80;;;;;;5049926;28;20445;-87
2023/06/03 10:45:50;;;;;;;7.10;5.00;;;26.30;54.20;;;;;;5021988;28;20446;-87
2023/06/03 10:48:17;;;;;;;5.83;5.20;;;26.00;54.70;;;;;;5030255;28;20445;-85
2023/06/03 10:51:07;;;;;;;6.67;5.97;;;25.50;55.60;;;;;;5047753;28;20452;-86
2023/06/03 10:53:47;;;;;;;11.57;6.00;;;25.50;56.30;;;;;;5050145;28;20452;-87
2023/06/03 10:56:34;;;;;;;5.60;5.07;;;26.10;57.00;;;;;;5021792;28;20505;-87
2023/06/03 10:59:02;;;;;;;8.00;4.70;;;25.60;56.40;;;;;;5051098;28;20458;-87
2023/06/03 11:02:02;;;;;;;6.83;5.40;;;25.70;56.00;;;;;;5050481;28;20460;-87
2023/06/03 11:04:31;;;;;;;6.70;4.43;;;25.40;56.90;;;;;;5034356;28;20528;-87
2023/06/03 11:06:57;;;;;;;4.83;4.20;;;25.40;57.30;;;;;;5051971;28;20415;-87
2023/06/03 11:09:33;;;;;;;5.40;4.90;;;25.40;56.40;;;;;;5033122;28;20450;-86
2023/06/03 11:12:04;;;;;;;8.00;5.67;;;25.30;58.00;;;;;;5049168;28;20440;-88
2023/06/03 11:14:29;;;;;;;7.40;5.23;;;25.20;58.50;;;;;;5050125;28;20526;-86
2023/06/03 11:16:58;;;;;;;7.60;5.37;;;26.50;58.90;;;;;;5038321;28;20460;-85
2023/06/03 11:19:46;;;;;;;11.10;5.73;;;24.80;58.60;;;;;;5031529;28;20188;-86
2023/06/03 11:22:27;;;;;;;7.27;5.10;;;24.80;59.30;;;;;;5050906;28;20420;-85
2023/06/03 11:24:54;;;;;;;6.70;4.60;;;25.00;59.90;;;;;;5047216;28;20428;-87
2023/06/03 11:27:22;;;;;;;6.50;4.93;;;25.40;60.20;;;;;;5048752;28;20444;-87
2023/06/03 11:29:48;;;;;;;5.43;4.50;;;25.80;59.20;;;;;;5031228;28;20819;-86
2023/06/03 11:32:15;;;;;;;6.70;5.23;;;25.60;57.50;;;;;;5050050;28;20441;-86
2023/06/03 11:34:41;;;;;;;7.83;4.67;;;;;;;;;;5034699;28;20455;-87
2023/06/03 11:37:07;;;;;;;4.97;4.10;;;;;;;;;;5040583;28;20453;-86
2023/06/03 11:40:02;;;;;;;7.40;4.70;;;25.60;59.20;;;;;;5051253;28;20488;-86
2023/06/03 11:42:28;;;;;;;11.77;5.40;;;25.50;58.70;;;;;;5051784;28;20425;-88
2023/06/03 11:44:54;;;;;;;7.40;4.77;;;;;;;;;;5031428;28;21006;-87
2023/06/03 11:47:19;;;;;;;7.97;5.47;;;25.80;58.50;;;;;;5033645;28;20601;-87
2023/06/03 11:49:45;;;;;;;10.07;4.90;;;;;;;;;;5048979;28;20457;-87
2023/06/03 11:52:12;;;;;;;7.90;5.83;;;;;;;;;;5051145;28;20188;-86
2023/06/03 11:54:43;;;;;;;10.90;6.20;;;25.10;58.60;;;;;;5047492;28;20460;-87
2023/06/03 11:57:09;;;;;;;7.20;4.27;;;;;;;;;;5052573;28;20432;-87
2023/06/03 11:59:41;;;;;;;7.07;4.37;;;25.60;59.70;;;;;;5051157;28;20512;-87
2023/06/03 12:02:07;;;;;;;10.27;5.27;;;;;;;;;;5052540;28;21037;-88
2023/06/03 12:04:34;;;;;;;7.73;4.60;;;25.20;59.10;;;;;;5047940;28;20433;-87
2023/06/03 12:07:01;;;;;;;5.80;4.87;;;28.80;62.60;;;;;;5031827;28;20421;-86
2023/06/03 12:09:28;;;;;;;7.67;5.37;;;25.40;60.80;;;;;;5048837;28;20471;-88
2023/06/03 12:11:55;;;;;;;5.93;4.37;;;;;;;;;;5050627;28;20513;-87
2023/06/03 12:14:28;;;;;;;7.20;5.37;;;25.80;60.00;;;;;;5049345;28;20503;-85
2023/06/03 12:16:57;;;;;;;6.37;4.17;;;25.60;57.90;;;;;;5052218;28;20868;-87
2023/06/03 12:19:23;;;;;;;8.63;5.30;;;;;;;;;;5041263;28;20431;-87
2023/06/03 12:21:59;;;;;;;8.17;5.30;;;25.80;58.10;;;;;;5053034;28;20506;-87
2023/06/03 12:24:30;;;;;;;7.00;4.70;;;25.80;59.00;;;;;;5049503;28;20956;-86
2023/06/03 12:26:56;;;;;;;6.63;4.37;;;25.50;58.40;;;;;;5025138;28;20425;-87
2023/06/03 12:29:24;;;;;;;7.43;4.80;;;25.80;59.30;;;;;;5051388;28;20567;-89
2023/06/03 12:32:00;;;;;;;10.60;4.73;;;25.80;59.40;;;;;;5052143;28;20440;-88
2023/06/03 12:34:36;;;;;;;6.63;4.90;;;26.00;57.60;;;;;;5049168;28;20464;-88
2023/06/03 12:37:04;;;;;;;5.20;4.77;;;26.40;58.60;;;;;;5048233;28;20429;-88
2023/06/03 12:39:59;;;;;;;8.47;5.07;;;26.40;57.20;;;;;;5049860;28;20515;-88
2023/06/03 12:42:38;;;;;;;7.80;5.10;;;26.30;56.80;;;;;;5028129;28;20433;-87
2023/06/03 12:45:05;;;;;;;6.10;4.80;;;26.40;57.30;;;;;;5044708;28;20460;-89
2023/06/03 12:47:41;;;;;;;10.77;5.23;;;26.00;57.60;;;;;;5045328;28;20441;-89
2023/06/03 12:50:10;;;;;;;8.47;6.07;;;26.00;58.30;;;;;;5045324;28;20498;-89
2023/06/03 12:52:37;;;;;;;6.73;5.20;;;26.00;57.20;;;;;;5021298;28;20433;-87
2023/06/03 12:55:09;;;;;;;7.60;5.40;;;25.60;58.20;;;;;;5047198;28;20430;-86
2023/06/03 12:57:36;;;;;;;7.07;5.47;;;;;;;;;;5048770;28;20421;-87
2023/06/03 13:00:06;;;;;;;5.40;4.87;;;25.60;58.10;;;;;;5049644;28;20684;-84
2023/06/03 13:02:32;;;;;;;7.90;5.80;;;;;;;;;;5047587;28;20434;-87
2023/06/03 13:04:58;;;;;;;6.40;4.73;;;25.80;58.40;;;;;;5041440;28;20425;-86
2023/06/03 13:07:24;;;;;;;7.87;4.97;;;;;;;;;;5031844;28;20865;-87
2023/06/03 13:09:50;;;;;;;6.23;4.93;;;;;;;;;;5048024;28;20201;-88
2023/06/03 13:12:16;;;;;;;10.40;4.87;;;;;;;;;;5046310;28;20507;-86
2023/06/03 13:14:43;;;;;;;7.83;5.10;;;;;;;;;;5033932;28;21098;-88
2023/06/03 13:17:09;;;;;;;5.17;4.43;;;;;;;;;;5048555;28;20528;-87
2023/06/03 13:19:36;;;;;;;7.40;5.23;;;25.90;56.70;;;;;;5048556;28;20535;-87
2023/06/03 13:22:02;;;;;;;12.17;4.87;;;;;;;;;;5049921;28;20455;-87
2023/06/03 13:24:27;;;;;;;7.20;4.30;;;;;;;;;;5047262;28;20466;-87
2023/06/03 13:26:53;;;;;;;10.63;3.60;;;;;;;;;;5049494;28;20451;-88
2023/06/03 13:29:19;;;;;;;7.90;5.17;;;;;;;;;;5044236;28;21048;-85
2023/06/03 13:31:45;;;;;;;6.07;4.60;;;;;;;;;;5046167;28;20935;-88